Locustdale, Pennsylvania
Current Conditions -  °F | °C
As of 6:15 AM on Friday 24 Oct 2014 (Local Time) from KHZL Reporting Station
Overcast Overcast  
Wind Chill: 50°   Ceiling: 1900
Heat Index: 50°   Visibility: 10mi
Dew Point: 43°   Wind: 17mph
Humidity: 76%   Direction: 320°NW
Pressure: 29.9"   Gusts: 26mph
Location:  40.78°N, 76.38°W
Report Text: KHZL 241015Z AUTO 32015G23KT 10SM BKN019 OVC025 10/06 A2990 RMK AO2
Loading
Personal Weather Stations






























Interactive Weather Map
Tropical Storm Tracking
New forecast layout! Learn more

10-Day Weather Forecast

Advertisements
Track Severe Weather on mobile